Time;durP1;ratioP1;P1;durP2;ratioP2;P2;SDS_P1;SDS_P2;PMS_P1;PMS_P2;Temp;Humidity;BMP_temperature;BMP_pressure;BME280_temperature;BME280_humidity;BME280_pressure;Samples;Min_cycle;Max_cycle;Signal;HPM_P1;HPM_P2
2023/10/10 00:01:02;;;;;;;9.73;3.72;;;;;;;11.46;69.36;93448.09;5061398;28;20398;-72
2023/10/10 00:03:31;;;;;;;8.55;3.35;;;;;;;11.52;69.39;93441.31;5065047;28;20140;-72
2023/10/10 00:05:58;;;;;;;8.68;3.25;;;;;;;11.46;69.45;93437.81;5066826;28;20052;-72
2023/10/10 00:08:33;;;;;;;9.88;3.38;;;;;;;11.27;69.66;93418.94;5061400;28;20090;-72
2023/10/10 00:11:03;;;;;;;9.63;3.50;;;;;;;11.53;69.88;93439.53;5063688;28;20072;-72
2023/10/10 00:13:30;;;;;;;9.13;3.60;;;;;;;11.56;69.68;93444.25;5061596;28;20457;-72
2023/10/10 00:15:58;;;;;;;7.90;3.35;;;;;;;11.59;69.02;93431.78;5070341;28;20060;-72
2023/10/10 00:18:25;;;;;;;9.07;3.30;;;;;;;11.47;69.28;93402.56;5070041;28;20048;-72
2023/10/10 00:21:06;;;;;;;8.18;3.40;;;;;;;11.75;69.12;93435.59;5064870;28;20044;-72
2023/10/10 00:23:41;;;;;;;9.25;3.78;;;;;;;11.73;69.73;93422.16;5070104;28;20059;-72
2023/10/10 00:26:12;;;;;;;8.52;3.67;;;;;;;11.81;69.41;93428.81;5065638;28;20501;-72
2023/10/10 00:28:41;;;;;;;11.13;3.63;;;;;;;11.81;69.94;93444.25;5068453;28;20139;-72
2023/10/10 00:31:10;;;;;;;7.00;3.40;;;;;;;11.60;71.95;93445.41;5070245;28;20048;-72
2023/10/10 00:33:38;;;;;;;7.38;3.20;;;;;;;11.59;70.86;93431.78;5066095;28;20496;-72
2023/10/10 00:36:09;;;;;;;6.47;3.15;;;;;;;11.63;71.08;93435.47;5070115;28;20150;-74
2023/10/10 00:38:38;;;;;;;6.47;2.80;;;;;;;11.69;70.98;93435.66;5070083;28;20102;-73
2023/10/10 00:41:09;;;;;;;11.65;3.60;;;;;;;11.67;71.49;93435.84;5067244;28;20056;-73
2023/10/10 00:43:37;;;;;;;9.63;3.35;;;;;;;11.74;71.30;93436.59;5069688;28;20501;-73
2023/10/10 00:46:06;;;;;;;7.05;3.28;;;;;;;11.77;71.09;93425.88;5065942;28;20060;-74
2023/10/10 00:48:38;;;;;;;8.88;3.42;;;;;;;11.86;71.61;93434.09;5069231;28;20134;-74
2023/10/10 00:51:10;;;;;;;8.18;3.58;;;;;;;11.86;71.27;93438.47;5069709;28;20050;-74
2023/10/10 00:53:44;;;;;;;6.97;3.03;;;;;;;11.88;71.88;93428.75;5065296;28;20484;-74
2023/10/10 00:56:13;;;;;;;10.13;3.08;;;;;;;11.94;71.70;93433.06;5066253;28;20075;-74
2023/10/10 00:58:42;;;;;;;8.70;3.30;;;;;;;11.97;71.34;93427.50;5066341;28;20516;-74
2023/10/10 01:01:12;;;;;;;8.85;3.30;;;;;;;12.03;71.68;93433.56;5068475;28;20055;-74
2023/10/10 01:03:42;;;;;;;9.73;3.28;;;;;;;12.04;70.86;93430.03;5069372;28;20041;-73
2023/10/10 01:06:13;;;;;;;9.43;3.88;;;;;;;12.04;70.53;93427.47;5069439;28;20044;-73
2023/10/10 01:08:53;;;;;;;8.70;3.22;;;;;;;12.00;70.44;93416.75;5066715;28;20164;-73
2023/10/10 01:11:21;;;;;;;11.75;3.47;;;;;;;11.97;70.53;93424.13;5062611;28;20056;-73
2023/10/10 01:13:47;;;;;;;9.27;3.80;;;;;;;11.92;71.57;93422.19;5069433;28;20469;-73
2023/10/10 01:16:14;;;;;;;8.02;3.05;;;;;;;11.81;71.53;93420.31;5069422;28;20500;-73
2023/10/10 01:18:51;;;;;;;8.80;3.78;;;;;;;11.82;71.40;93414.97;5061040;28;20033;-73
2023/10/10 01:21:28;;;;;;;11.05;4.05;;;;;;;11.76;72.22;93431.25;5066559;28;20808;-73
2023/10/10 01:23:58;;;;;;;14.10;7.28;;;;;;;11.50;73.08;93426.06;5063801;28;20048;-73
2023/10/10 01:26:28;;;;;;;10.02;4.18;;;;;;;11.44;72.56;93429.50;5065745;28;20562;-73
2023/10/10 01:28:59;;;;;;;12.60;5.05;;;;;;;11.27;74.50;93439.50;5068875;28;20567;-74
2023/10/10 01:31:30;;;;;;;10.02;3.83;;;;;;;11.18;74.54;93436.41;5063490;28;20385;-73
2023/10/10 01:34:00;;;;;;;11.07;4.32;;;;;;;11.12;75.34;93432.09;5068861;28;20045;-73
2023/10/10 01:36:29;;;;;;;11.30;4.38;;;;;;;10.85;74.74;93395.47;5068966;28;20054;-73
2023/10/10 01:39:34;;;;;;;10.30;4.35;;;;;;;11.03;75.27;93430.75;5067967;28;20091;-73
2023/10/10 01:42:01;;;;;;;7.90;3.65;;;;;;;10.98;76.80;93446.81;5064722;28;20059;-73
2023/10/10 01:44:28;;;;;;;8.05;3.88;;;;;;;10.99;76.23;93439.88;5068829;28;20051;-73
2023/10/10 01:46:55;;;;;;;7.72;4.03;;;;;;;11.04;76.33;93442.63;5068851;28;20087;-73
2023/10/10 01:49:26;;;;;;;9.23;3.70;;;;;;;11.07;75.63;93448.13;5063475;28;20509;-73
2023/10/10 01:51:58;;;;;;;9.05;3.83;;;;;;;11.11;75.59;93440.00;5067312;28;20044;-73
2023/10/10 01:54:34;;;;;;;7.60;3.38;;;;;;;11.14;75.59;93457.56;5068283;28;20084;-73
2023/10/10 01:57:06;;;;;;;9.48;3.65;;;;;;;11.14;75.78;93458.38;5068679;28;20041;-73
2023/10/10 01:59:35;;;;;;;8.77;3.78;;;;;;;11.12;76.04;93465.53;5063666;28;20049;-73
2023/10/10 02:02:07;;;;;;;9.25;3.85;;;;;;;11.12;75.75;93444.94;5064943;28;20098;-73
2023/10/10 02:04:35;;;;;;;8.88;3.47;;;;;;;11.04;77.26;93443.41;5068296;28;20053;-73
2023/10/10 02:07:13;;;;;;;9.43;3.63;;;;;;;11.12;77.19;93450.09;5063322;28;20055;-73
2023/10/10 02:09:43;;;;;;;8.32;3.45;;;;;;;11.19;75.40;93461.13;5063481;28;20145;-73
2023/10/10 02:12:16;;;;;;;7.70;3.70;;;;;;;11.17;76.91;93455.41;5068477;28;20131;-73
2023/10/10 02:14:43;;;;;;;9.48;3.90;;;;;;;11.19;76.77;93460.31;5060280;28;20051;-73
2023/10/10 02:17:21;;;;;;;7.10;3.33;;;;;;;11.15;76.48;93456.59;5068388;28;20106;-73
2023/10/10 02:19:53;;;;;;;10.07;3.60;;;;;;;11.17;77.40;93475.97;5064936;28;20048;-72
2023/10/10 02:22:33;;;;;;;11.00;3.58;;;;;;;11.18;77.76;93477.53;5061814;28;20460;-73
2023/10/10 02:25:36;;;;;;;10.25;4.13;;;;;;;11.08;78.38;93461.78;5066022;28;20088;-73
2023/10/10 02:28:02;;;;;;;9.38;3.67;;;;;;;10.99;79.14;93458.66;5067721;28;20135;-73
2023/10/10 02:30:35;;;;;;;13.52;4.38;;;;;;;10.95;78.62;93458.28;5065312;28;20052;-73
2023/10/10 02:33:12;;;;;;;9.95;3.67;;;;;;;11.03;78.18;93477.81;5066789;28;20056;-74
2023/10/10 02:35:56;;;;;;;9.82;3.47;;;;;;;11.08;78.46;93461.78;5065896;28;20040;-72
2023/10/10 02:38:33;;;;;;;11.65;4.32;;;;;;;11.12;77.25;93452.66;5063317;28;20259;-73
2023/10/10 02:41:26;;;;;;;10.32;4.20;;;;;;;11.17;76.98;93452.03;5067802;28;20408;-72
2023/10/10 02:44:04;;;;;;;8.70;3.35;;;;;;;11.23;77.75;93438.34;5062079;28;20575;-72
2023/10/10 02:46:38;;;;;;;12.35;3.60;;;;;;;11.25;77.45;93449.19;5065486;28;20045;-72
2023/10/10 02:49:22;;;;;;;10.93;3.95;;;;;;;11.27;76.38;93443.84;5064675;28;20048;-72
2023/10/10 02:51:49;;;;;;;12.73;4.45;;;;;;;11.28;76.68;93441.09;5064420;28;20452;-73
2023/10/10 02:54:27;;;;;;;14.80;5.30;;;;;;;11.28;76.27;93440.28;5062844;28;20546;-72
2023/10/10 02:56:57;;;;;;;16.42;7.15;;;;;;;11.26;77.52;93437.16;5066308;28;20059;-72
2023/10/10 02:59:31;;;;;;;20.52;7.60;;;;;;;11.02;77.38;93404.25;5064563;28;20102;-72
2023/10/10 03:01:59;;;;;;;18.20;8.50;;;;;;;11.20;77.08;93433.63;5067305;28;20052;-72
2023/10/10 03:04:52;;;;;;;19.40;7.13;;;;;;;11.25;77.36;93444.06;5063409;28;20045;-73
2023/10/10 03:07:27;;;;;;;15.73;7.10;;;;;;;11.27;77.05;93436.16;5062680;28;20071;-72
2023/10/10 03:12:49;;;;;;;17.50;6.68;;;;;;;11.25;78.22;93446.63;5035772;28;20141;-72
2023/10/10 03:15:27;;;;;;;18.02;7.10;;;;;;;11.02;77.80;93413.75;5065775;28;20546;-72
2023/10/10 03:18:15;;;;;;;20.88;7.28;;;;;;;11.29;78.23;93458.09;5057971;28;20087;-73
2023/10/10 03:20:51;;;;;;;15.45;7.15;;;;;;;11.23;79.56;93459.72;5064459;28;20509;-72
2023/10/10 03:23:33;;;;;;;21.55;8.68;;;;;;;11.08;80.42;93448.91;5063359;28;20052;-72
2023/10/10 03:26:04;;;;;;;18.33;7.53;;;;;;;11.18;80.10;93461.31;5065457;28;20055;-73
2023/10/10 03:28:34;;;;;;;20.52;9.43;;;;;;;11.21;78.93;93458.34;5062469;28;20111;-72
2023/10/10 03:31:08;;;;;;;19.35;8.32;;;;;;;11.13;78.97;93441.38;5064843;28;20275;-72
2023/10/10 03:33:44;;;;;;;19.45;8.23;;;;;;;11.29;78.55;93460.66;5066875;28;20736;-73
2023/10/10 03:36:23;;;;;;;19.85;7.57;;;;;;;11.30;77.81;93457.09;5062043;28;20524;-72
2023/10/10 03:39:16;;;;;;;15.35;7.55;;;;;;;11.34;78.51;93455.69;5061201;28;20048;-72
2023/10/10 05:23:47;;;;;;;19.40;9.52;;;;;;;12.00;81.17;93488.06;5074662;28;20063;-72
2023/10/10 05:26:15;;;;;;;22.33;9.98;;;;;;;11.97;81.05;93481.56;5071850;28;20040;-72
2023/10/10 05:28:45;;;;;;;26.10;9.07;;;;;;;12.16;81.01;93499.63;5072160;28;20055;-73
2023/10/10 05:31:17;;;;;;;22.27;8.50;;;;;;;12.18;79.98;93499.44;5072313;28;20166;-72
2023/10/10 05:33:44;;;;;;;20.80;8.93;;;;;;;12.34;81.67;93513.53;5080309;28;20051;-73
2023/10/10 05:36:13;;;;;;;24.38;9.15;;;;;;;12.22;78.63;93475.59;5076563;28;20048;-72
2023/10/10 05:38:40;;;;;;;26.20;8.65;;;;;;;12.53;79.31;93504.84;5079521;28;20105;-72
2023/10/10 05:41:10;;;;;;;22.98;8.88;;;;;;;12.65;78.69;93509.28;5074316;28;20044;-72
2023/10/10 05:43:37;;;;;;;24.38;7.70;;;;;;;12.77;78.02;93517.09;5069440;28;20125;-72
2023/10/10 05:46:04;;;;;;;22.77;7.80;;;;;;;12.87;78.15;93517.34;5069757;28;20079;-73
2023/10/10 05:48:32;;;;;;;17.02;7.05;;;;;;;12.95;77.95;93518.84;5070650;28;20097;-72
2023/10/10 05:50:59;;;;;;;19.70;7.43;;;;;;;12.92;79.63;93514.91;5078490;28;20590;-73
2023/10/10 05:53:32;;;;;;;19.88;7.13;;;;;;;13.07;78.78;93518.91;5076441;28;20649;-73
2023/10/10 05:55:59;;;;;;;17.88;8.95;;;;;;;13.10;79.38;93516.69;5068553;28;20052;-73
2023/10/10 05:58:26;;;;;;;17.20;7.68;;;;;;;13.07;79.58;93517.16;5074903;28;20535;-72
2023/10/10 06:00:54;;;;;;;20.92;7.65;;;;;;;13.06;78.93;93507.81;5065038;28;20064;-73
2023/10/10 06:03:22;;;;;;;22.17;8.10;;;;;;;13.10;77.20;93495.25;5075179;28;20145;-72
2023/10/10 06:05:50;;;;;;;17.52;7.30;;;;;;;13.30;77.09;93517.44;5068036;28;20052;-73
2023/10/10 06:08:18;;;;;;;19.25;8.43;;;;;;;13.32;76.42;93525.75;5070939;28;20646;-73
2023/10/10 06:10:48;;;;;;;26.98;9.85;;;;;;;13.42;76.75;93520.84;5086217;28;20048;-73
2023/10/10 06:13:14;;;;;;;21.73;8.85;;;;;;;13.48;76.42;93514.84;5077240;28;20130;-73
2023/10/10 06:15:43;;;;;;;21.83;8.43;;;;;;;13.59;77.00;93517.69;5071987;28;20524;-73
2023/10/10 06:18:12;;;;;;;26.73;9.55;;;;;;;13.55;78.06;93498.47;5069143;28;20048;-73
2023/10/10 06:20:41;;;;;;;17.95;8.18;;;;;;;13.72;77.06;93520.09;5073758;28;20052;-73
2023/10/10 06:23:14;;;;;;;24.75;9.20;;;;;;;13.79;77.46;93526.94;5080446;28;20060;-72
2023/10/10 06:25:42;;;;;;;25.35;8.68;;;;;;;13.81;79.43;93517.16;5076656;28;20059;-72
2023/10/10 06:28:22;;;;;;;19.83;8.07;;;;;;;13.86;77.64;93507.75;5069663;28;20048;-73
2023/10/10 06:30:53;;;;;;;18.08;7.07;;;;;;;14.01;78.32;93522.81;5076028;28;20492;-73
2023/10/10 06:33:27;;;;;;;20.42;6.65;;;;;;;14.07;79.99;93520.38;5080452;28;20041;-72
2023/10/10 06:36:18;;;;;;;15.55;6.05;;;;;;;14.10;77.86;93515.53;5069600;28;20056;-72
2023/10/10 06:38:45;;;;;;;21.50;7.60;;;;;;;14.18;80.73;93531.69;5069232;28;20044;-73
2023/10/10 06:41:17;;;;;;;15.85;6.28;;;;;;;14.28;79.08;93524.19;5067415;28;20788;-72
2023/10/10 06:43:47;;;;;;;16.67;6.72;;;;;;;14.35;77.60;93535.19;5074694;28;20052;-72
2023/10/10 06:46:17;;;;;;;19.40;6.70;;;;;;;14.48;78.74;93528.25;5071885;28;20049;-72
2023/10/10 06:48:47;;;;;;;23.45;6.93;;;;;;;14.37;78.40;93498.78;5068394;28;20048;-72
2023/10/10 06:51:15;;;;;;;19.88;6.03;;;;;;;14.66;78.13;93525.53;5068507;28;20044;-72
2023/10/10 06:53:45;;;;;;;18.63;5.53;;;;;;;14.78;77.74;93522.94;5067747;28;20056;-72
2023/10/10 06:56:15;;;;;;;17.05;5.50;;;;;;;14.85;79.08;93522.81;5063633;28;20047;-72
2023/10/10 06:58:47;;;;;;;17.67;6.32;;;;;;;15.01;77.97;93526.50;5068585;28;20392;-72
2023/10/10 07:01:19;;;;;;;13.88;5.47;;;;;;;15.05;76.36;93519.84;5067820;28;20055;-73
2023/10/10 07:03:54;;;;;;;22.38;6.85;;;;;;;15.28;76.23;93530.34;5072458;28;20078;-72
2023/10/10 07:06:22;;;;;;;17.58;5.93;;;;;;;15.45;75.29;93526.00;5068258;28;20054;-73
2023/10/10 07:09:14;;;;;;;14.15;5.43;;;;;;;15.56;75.14;93524.38;5084970;28;20051;-72
2023/10/10 07:11:39;;;;;;;20.02;6.55;;;;;;;15.60;77.08;93519.53;5066272;28;20090;-72
2023/10/10 07:14:08;;;;;;;44.42;22.85;;;;;;;15.51;75.87;93488.06;5067029;28;20155;-72
2023/10/10 07:16:35;;;;;;;45.53;18.05;;;;;;;15.93;76.01;93535.38;5062867;28;20055;-73
2023/10/10 07:19:19;;;;;;;23.70;10.52;;;;;;;16.02;76.29;93532.16;5075938;28;20578;-73
2023/10/10 07:21:45;;;;;;;14.48;5.22;;;;;;;16.11;75.95;93518.81;5079077;28;20082;-73
2023/10/10 07:24:14;;;;;;;16.35;5.75;;;;;;;16.28;74.44;93519.59;5069879;28;20052;-73
2023/10/10 07:26:46;;;;;;;11.15;3.85;;;;;;;16.39;73.94;93517.13;5073595;28;20086;-73
2023/10/10 07:29:27;;;;;;;6.82;3.53;;;;;;;16.55;74.05;93518.13;5069242;28;20048;-73
2023/10/10 07:32:04;;;;;;;8.07;3.88;;;;;;;16.75;72.93;93525.38;5068506;28;20048;-73
2023/10/10 07:34:38;;;;;;;10.23;3.70;;;;;;;16.92;72.39;93519.34;5084112;28;20067;-73
2023/10/10 07:37:08;;;;;;;8.52;3.15;;;;;;;17.04;71.82;93522.63;5072101;28;20049;-73
2023/10/10 07:39:36;;;;;;;9.32;3.83;;;;;;;17.23;70.57;93519.75;5070167;28;20048;-73
2023/10/10 07:42:08;;;;;;;12.13;3.38;;;;;;;17.33;70.12;93519.06;5066157;28;20097;-73
2023/10/10 07:44:37;;;;;;;9.70;3.55;;;;;;;17.37;70.51;93517.56;5068351;28;20047;-73
2023/10/10 07:47:26;;;;;;;8.13;2.92;;;;;;;17.38;70.51;93518.31;5067077;28;20045;-73
2023/10/10 07:49:54;;;;;;;7.97;3.75;;;;;;;16.99;73.13;93516.59;5074062;28;20052;-73
2023/10/10 07:52:24;;;;;;;10.60;3.10;;;;;;;16.90;73.77;93518.81;5084768;28;20412;-73
2023/10/10 07:54:53;;;;;;;16.88;4.28;;;;;;;17.06;73.11;93519.81;5065446;28;20058;-73
2023/10/10 07:57:25;;;;;;;9.27;3.55;;;;;;;16.99;73.00;93522.56;5065551;28;20049;-73
2023/10/10 07:59:57;;;;;;;7.20;3.63;;;;;;;17.04;73.21;93529.66;5080485;28;20048;-73
2023/10/10 08:02:31;;;;;;;13.30;4.68;;;;;;;17.08;72.75;93526.31;5066533;28;20053;-73
2023/10/10 08:05:01;;;;;;;8.43;4.63;;;;;;;17.15;72.77;93525.34;5073567;28;20052;-73
2023/10/10 08:07:28;;;;;;;18.90;4.55;;;;;;;17.35;72.10;93525.59;5068024;28;20114;-73
2023/10/10 08:12:36;;;;;;;13.40;4.55;;;;;;;17.44;72.25;93533.72;5068585;28;20492;-74
2023/10/10 08:15:19;;;;;;;13.38;4.20;;;;;;;17.52;70.78;93511.72;5073609;28;20048;-73
2023/10/10 08:17:52;;;;;;;11.80;4.55;;;;;;;17.62;70.68;93522.22;5077289;28;20052;-73
2023/10/10 08:20:34;;;;;;;12.52;4.35;;;;;;;17.65;69.58;93526.13;5084035;28;20127;-73
2023/10/10 08:23:02;;;;;;;11.07;3.92;;;;;;;17.65;70.50;93520.16;5070555;28;20059;-73
2023/10/10 08:25:29;;;;;;;11.32;3.75;;;;;;;17.62;70.60;93513.63;5081884;28;20040;-73
2023/10/10 08:27:56;;;;;;;10.55;3.83;;;;;;;17.80;70.29;93520.28;5085353;28;20044;-73
2023/10/10 08:30:25;;;;;;;8.32;3.45;;;;;;;17.88;69.48;93519.81;5076567;28;20099;-73
2023/10/10 08:32:53;;;;;;;10.95;4.18;;;;;;;17.82;69.55;93520.06;5077701;28;20052;-73
2023/10/10 08:35:21;;;;;;;10.80;4.20;;;;;;;17.78;70.50;93524.97;5086696;28;20048;-73
2023/10/10 08:37:49;;;;;;;7.70;3.92;;;;;;;17.81;70.77;93524.44;5070872;28;20048;-73
2023/10/10 08:40:19;;;;;;;6.75;3.83;;;;;;;17.50;71.71;93526.78;5071404;28;20040;-73
2023/10/10 08:42:47;;;;;;;19.42;8.27;;;;;;;17.40;71.50;93524.06;5080906;28;20063;-73
2023/10/10 08:45:23;;;;;;;11.48;5.35;;;;;;;17.46;71.93;93529.06;5074269;28;20051;-73
2023/10/10 08:48:00;;;;;;;9.60;3.95;;;;;;;17.43;72.42;93539.16;5073751;28;20476;-73
2023/10/10 08:50:27;;;;;;;11.25;4.43;;;;;;;17.19;73.89;93536.84;5072041;28;20084;-74
2023/10/10 08:52:55;;;;;;;8.23;3.08;;;;;;;16.93;74.79;93513.94;5076620;28;20044;-74
2023/10/10 08:55:26;;;;;;;19.40;3.65;;;;;;;17.02;75.37;93534.25;5070257;28;20045;-74
2023/10/10 08:57:55;;;;;;;6.53;2.97;;;;;;;16.83;76.07;93540.53;5070163;28;20731;-74
2023/10/10 09:00:26;;;;;;;10.15;4.03;;;;;;;16.57;77.80;93547.19;5073238;28;20045;-74
2023/10/10 09:02:55;;;;;;;6.47;3.05;;;;;;;16.59;78.21;93544.34;5072701;28;20146;-74
2023/10/10 09:05:23;;;;;;;8.82;4.10;;;;;;;16.59;78.14;93545.16;5070624;28;20053;-74
2023/10/10 09:07:52;;;;;;;6.70;3.20;;;;;;;16.33;79.40;93552.56;5068078;28;20048;-74
2023/10/10 09:10:28;;;;;;;8.73;4.05;;;;;;;16.30;80.08;93550.47;5079144;28;20127;-74
2023/10/10 09:12:56;;;;;;;7.72;4.15;;;;;;;16.35;80.49;93544.56;5073971;28;20041;-74
2023/10/10 09:15:24;;;;;;;6.78;3.80;;;;;;;16.49;79.61;93527.66;5071078;28;20049;-74
2023/10/10 09:17:55;;;;;;;7.85;3.28;;;;;;;16.61;78.71;93524.19;5074497;28;20124;-74
2023/10/10 09:20:29;;;;;;;6.75;2.90;;;;;;;16.52;78.15;93516.78;5070330;28;20060;-74
2023/10/10 09:23:02;;;;;;;9.10;3.47;;;;;;;16.78;77.86;93535.28;5070345;28;20143;-74
2023/10/10 09:25:41;;;;;;;5.40;2.90;;;;;;;16.87;77.66;93535.66;5069744;28;20407;-74
2023/10/10 09:28:10;;;;;;;8.30;3.72;;;;;;;16.73;78.38;93527.44;5075706;28;20048;-74
2023/10/10 09:30:41;;;;;;;8.90;3.17;;;;;;;16.72;77.99;93506.94;5070425;28;20052;-74
2023/10/10 09:33:22;;;;;;;6.43;3.00;;;;;;;17.07;77.87;93524.75;5070205;28;20048;-74
2023/10/10 09:35:54;;;;;;;6.05;3.50;;;;;;;17.47;76.03;93541.03;5064769;28;20550;-74
2023/10/10 09:38:26;;;;;;;7.05;3.40;;;;;;;17.69;74.15;93540.19;5070589;28;20049;-74
2023/10/10 09:41:10;;;;;;;5.82;2.72;;;;;;;17.69;73.79;93550.56;5081096;28;20051;-75
2023/10/10 09:43:49;;;;;;;7.43;3.03;;;;;;;17.51;74.51;93549.13;5087632;28;20459;-74
2023/10/10 09:46:25;;;;;;;6.50;2.97;;;;;;;17.45;74.88;93548.28;5072711;28;20051;-75
2023/10/10 09:54:35;;;;;;;5.43;2.05;;;;;;;17.25;74.97;93548.84;5087313;28;20587;-74
2023/10/10 09:57:08;;;;;;;7.43;2.83;;;;;;;17.34;75.34;93550.00;5066084;28;20388;-74
2023/10/10 09:59:37;;;;;;;4.38;1.90;;;;;;;17.05;73.68;93557.97;5068425;28;20090;-75
2023/10/10 10:02:06;;;;;;;7.88;2.92;;;;;;;17.17;74.68;93549.28;5075088;28;20599;-74
2023/10/10 10:04:41;;;;;;;4.25;2.10;;;;;;;17.20;73.70;93538.41;5082976;28;20795;-73
2023/10/10 10:07:41;;;;;;;7.20;3.08;;;;;;;17.33;73.81;93543.22;5071149;28;20053;-75
2023/10/10 10:10:33;;;;;;;6.00;2.88;;;;;;;17.42;73.64;93537.59;5072329;28;20052;-74
2023/10/10 10:13:19;;;;;;;5.43;2.85;;;;;;;17.51;73.13;93530.94;5063072;28;20500;-74
2023/10/10 10:16:19;;;;;;;8.25;2.97;;;;;;;17.64;71.90;93524.56;5088012;28;20055;-75
2023/10/10 10:18:52;;;;;;;8.32;3.30;;;;;;;17.91;70.75;93528.94;5076050;28;20048;-75
2023/10/10 10:21:27;;;;;;;5.60;2.25;;;;;;;17.55;71.30;93534.59;5065646;28;20040;-73
2023/10/10 10:24:15;;;;;;;6.25;1.90;;;;;;;17.63;71.45;93523.78;5084253;28;20092;-74
2023/10/10 10:26:43;;;;;;;3.95;2.13;;;;;;;17.60;71.87;93526.09;5078407;28;20048;-75
2023/10/10 10:29:16;;;;;;;4.43;2.65;;;;;;;17.71;71.04;93525.16;5078756;28;20507;-74
2023/10/10 10:31:50;;;;;;;6.75;2.00;;;;;;;17.65;71.47;93530.53;5076800;28;20048;-74
2023/10/10 10:34:31;;;;;;;5.68;1.95;;;;;;;17.81;70.40;93529.66;5071348;28;20127;-74
2023/10/10 10:37:06;;;;;;;9.82;3.70;;;;;;;17.66;70.04;93509.53;5071448;28;20052;-73
2023/10/10 10:39:35;;;;;;;7.65;2.45;;;;;;;17.89;69.88;93524.00;5069409;28;20444;-74
2023/10/10 10:42:11;;;;;;;4.28;2.03;;;;;;;17.87;69.86;93518.25;5077563;28;20048;-74
2023/10/10 10:44:54;;;;;;;;;;;;;;;17.67;69.63;93524.06;5070978;28;20415;-73
2023/10/10 10:47:53;;;;;;;4.57;2.38;;;;;;;17.59;70.14;93525.28;5067615;28;20035;-74
2023/10/10 10:50:40;;;;;;;6.18;2.60;;;;;;;17.61;69.19;93502.47;5067797;28;20044;-75
2023/10/10 10:53:20;;;;;;;8.02;3.35;;;;;;;17.59;69.70;93516.72;5069109;28;21038;-74
2023/10/10 10:56:06;;;;;;;5.82;2.17;;;;;;;17.52;69.76;93511.72;5068749;28;20075;-74
2023/10/10 10:58:47;;;;;;;4.75;2.22;;;;;;;17.58;68.94;93502.16;5065225;28;20086;-73
2023/10/10 11:01:16;;;;;;;7.22;2.47;;;;;;;17.37;68.99;93473.41;5075263;28;20051;-75
2023/10/10 11:03:44;;;;;;;3.30;1.73;;;;;;;17.65;68.86;93505.34;5076766;28;20048;-75
2023/10/10 11:06:14;;;;;;;4.75;2.40;;;;;;;17.88;68.05;93500.88;5073536;28;20071;-73
2023/10/10 11:08:52;;;;;;;5.93;2.38;;;;;;;17.77;68.25;93471.41;5070577;28;21004;-74
2023/10/10 11:11:36;;;;;;;5.40;2.30;;;;;;;17.74;67.33;93501.25;5067713;28;20127;-74
2023/10/10 11:14:09;;;;;;;6.88;2.10;;;;;;;17.65;67.13;93494.16;5065875;28;20049;-74
2023/10/10 11:16:38;;;;;;;6.72;2.30;;;;;;;17.85;67.17;93498.75;5067852;28;20146;-75
2023/10/10 11:19:12;;;;;;;6.80;2.08;;;;;;;18.03;65.97;93493.19;5064795;28;20056;-75
2023/10/10 11:21:48;;;;;;;10.70;2.70;;;;;;;18.13;66.32;93491.72;5069704;28;20504;-74
2023/10/10 11:24:15;;;;;;;4.72;2.50;;;;;;;18.24;65.66;93502.97;5068133;28;20048;-75
2023/10/10 11:26:45;;;;;;;6.95;2.38;;;;;;;18.02;66.55;93457.81;5068047;28;20048;-75
2023/10/10 11:29:27;;;;;;;8.13;2.85;;;;;;;18.53;64.68;93489.63;5068571;28;20072;-75
2023/10/10 11:32:06;;;;;;;6.28;2.53;;;;;;;18.49;64.16;93485.94;5073090;28;20420;-75
2023/10/10 11:34:42;;;;;;;6.82;2.40;;;;;;;18.60;65.15;93497.22;5068901;28;20493;-74
2023/10/10 11:37:13;;;;;;;;;;;;;;;18.39;64.66;93491.88;5069083;28;20045;-74
2023/10/10 11:39:47;;;;;;;7.45;2.10;;;;;;;18.22;64.48;93476.44;5074342;28;19929;-75
2023/10/10 11:42:27;;;;;;;5.22;2.15;;;;;;;18.05;64.68;93479.16;5075005;28;20053;-74
2023/10/10 11:45:00;;;;;;;7.35;2.38;;;;;;;17.97;65.28;93477.81;5067414;28;20504;-75
2023/10/10 11:47:27;;;;;;;5.20;2.13;;;;;;;18.31;64.75;93490.53;5076981;28;20055;-74
2023/10/10 11:50:01;;;;;;;4.85;1.85;;;;;;;18.50;64.41;93493.50;5068773;28;20067;-74
2023/10/10 11:52:29;;;;;;;5.25;2.30;;;;;;;18.56;62.71;93500.31;5072576;28;20051;-73
2023/10/10 11:54:58;;;;;;;7.18;2.17;;;;;;;18.53;62.66;93487.03;5067693;28;20052;-74
2023/10/10 11:57:33;;;;;;;5.55;2.35;;;;;;;18.56;63.39;93489.09;5072194;28;20045;-74
2023/10/10 12:00:07;;;;;;;4.93;2.20;;;;;;;18.47;62.16;93481.00;5066954;28;20070;-74
2023/10/10 12:02:40;;;;;;;5.20;2.03;;;;;;;18.22;62.91;93489.44;5062546;28;20048;-73
2023/10/10 12:05:36;;;;;;;4.70;1.80;;;;;;;18.30;63.04;93483.78;5073615;28;20052;-74
2023/10/10 12:08:05;;;;;;;;;;;;;;;18.23;63.29;93483.22;5071866;28;20052;-74
2023/10/10 12:10:42;;;;;;;5.93;2.20;;;;;;;18.39;63.21;93474.47;5069974;28;20356;-74
2023/10/10 12:13:19;;;;;;;6.80;2.33;;;;;;;18.45;63.00;93441.47;5072046;28;20045;-74
2023/10/10 12:15:46;;;;;;;5.53;1.85;;;;;;;18.74;62.89;93461.88;5054781;28;20916;-74
2023/10/10 12:18:13;;;;;;;7.75;1.98;;;;;;;18.51;62.41;93437.84;5081040;28;20040;-73
2023/10/10 12:20:43;;;;;;;3.00;1.48;;;;;;;18.51;62.69;93470.88;5073085;28;20053;-73
2023/10/10 12:23:11;;;;;;;5.07;1.55;;;;;;;18.53;63.08;93466.22;5073666;28;20157;-73
2023/10/10 12:25:40;;;;;;;5.00;1.73;;;;;;;18.54;63.43;93467.78;5075369;28;20047;-73
2023/10/10 12:28:09;;;;;;;5.05;1.77;;;;;;;18.52;62.41;93462.06;5080136;28;20515;-74
2023/10/10 12:30:41;;;;;;;5.55;2.80;;;;;;;18.68;62.23;93461.09;5071239;28;20063;-74
2023/10/10 12:33:12;;;;;;;7.75;2.60;;;;;;;18.59;61.85;93436.56;5088763;28;20048;-73
2023/10/10 12:35:42;;;;;;;7.55;2.05;;;;;;;18.77;61.62;93457.97;5078903;28;20048;-73
2023/10/10 12:38:09;;;;;;;6.32;2.67;;;;;;;18.89;62.04;93461.13;5072711;28;20044;-74
2023/10/10 12:40:36;;;;;;;7.68;2.65;;;;;;;18.81;62.71;93453.84;5070671;28;20078;-74
2023/10/10 12:43:04;;;;;;;4.80;2.30;;;;;;;18.78;63.15;93446.53;5069764;28;20063;-74
2023/10/10 12:45:32;;;;;;;5.35;2.00;;;;;;;18.88;62.93;93461.41;5072722;28;20101;-74
2023/10/10 12:48:02;;;;;;;6.43;2.08;;;;;;;18.72;62.17;93455.34;5073222;28;20072;-73
2023/10/10 12:50:30;;;;;;;4.78;2.08;;;;;;;18.74;62.56;93459.28;5077867;28;20048;-73
2023/10/10 12:53:07;;;;;;;5.93;2.00;;;;;;;18.65;62.33;93477.19;5075207;28;20056;-74
2023/10/10 12:55:36;;;;;;;6.95;2.60;;;;;;;18.44;62.50;93468.50;5087870;28;20048;-73
2023/10/10 12:58:14;;;;;;;6.13;2.95;;;;;;;18.56;63.14;93476.09;5066784;28;20097;-73
2023/10/10 13:00:49;;;;;;;5.45;2.40;;;;;;;18.48;62.79;93472.19;5073169;28;20143;-73
2023/10/10 13:03:18;;;;;;;4.53;1.83;;;;;;;18.36;63.49;93454.16;5089658;28;20048;-73
2023/10/10 13:05:47;;;;;;;5.80;1.95;;;;;;;18.39;63.73;93468.47;5070160;28;20118;-74
2023/10/10 13:08:15;;;;;;;4.40;1.83;;;;;;;18.18;64.69;93463.16;5072264;28;20076;-73
2023/10/10 13:10:42;;;;;;;6.07;2.10;;;;;;;18.34;64.81;93464.03;5070695;28;20080;-74
2023/10/10 13:13:09;;;;;;;5.80;2.03;;;;;;;18.49;64.43;93463.34;5072343;28;20078;-73
2023/10/10 13:15:49;;;;;;;4.93;1.80;;;;;;;18.09;64.42;93457.63;5068583;28;20044;-74
2023/10/10 13:18:22;;;;;;;6.65;2.00;;;;;;;18.13;65.33;93465.72;5077221;28;20569;-73
2023/10/10 13:20:50;;;;;;;6.80;2.10;;;;;;;17.70;65.55;93469.03;5064007;28;20048;-72
2023/10/10 13:23:18;;;;;;;5.38;2.25;;;;;;;17.71;66.45;93465.41;5077505;28;20102;-73
2023/10/10 13:25:48;;;;;;;7.18;2.10;;;;;;;17.70;67.07;93457.84;5070186;28;20052;-73
2023/10/10 13:28:19;;;;;;;6.03;2.63;;;;;;;17.84;66.90;93469.41;5070436;28;20058;-74
2023/10/10 13:30:47;;;;;;;5.00;2.45;;;;;;;17.79;67.10;93465.97;5077450;28;20040;-74
2023/10/10 13:33:14;;;;;;;6.75;2.45;;;;;;;17.64;67.65;93480.41;5077825;28;20053;-73
2023/10/10 13:35:43;;;;;;;6.43;2.55;;;;;;;17.67;67.88;93471.34;5076039;28;20045;-74
2023/10/10 13:38:11;;;;;;;4.45;1.95;;;;;;;17.68;68.33;93478.09;5070114;28;20044;-74
2023/10/10 13:40:45;;;;;;;6.78;2.55;;;;;;;17.74;68.40;93483.06;5073124;28;20052;-74
2023/10/10 13:43:16;;;;;;;14.27;3.63;;;;;;;17.72;68.41;93482.56;5087930;28;20496;-73
2023/10/10 13:45:45;;;;;;;5.80;2.72;;;;;;;17.56;68.33;93476.44;5088137;28;20055;-73
2023/10/10 13:48:14;;;;;;;6.07;3.03;;;;;;;17.44;69.38;93479.19;5072883;28;20515;-74
2023/10/10 13:50:42;;;;;;;6.82;2.42;;;;;;;17.51;69.64;93468.63;5069994;28;20113;-73